Terminal Aerodrome Forecast
Issued by NWS El Paso, TX

Home | Current Version | Previous Version | Text Only | Print | Product List | Glossary On
Versions: 1 2 3 4 5 6 7 8 9 10 11 12
000
FTUS44 KEPZ 272300
TAFELP
TAF
KELP 272332Z 2800/2824 VRB04KT P6SM FEW090 SCT250
     FM280400 03005KT P6SM SCT250
     FM282000 28005KT P6SM SCT250=

USA.gov is the U.S. government's official web portal to all federal, state and local government web resources and services.